Metabetchouan, Canada
Current Conditions -  °F | °C
As of 3:00 PM on Thursday 29 Jan 2015 (Local Time) from CYRJ Reporting Station
Overcast Overcast  
Wind Chill: 18°   Ceiling: 9000
Heat Index: 18°   Visibility: 40mi
Dew Point:   Wind: 3mph
Humidity: 63%   Direction: 110°ESE
Pressure: 29.99"   Gusts: NA
Location:  48.43°N, 71.87°W
Report Text: CYRJ 292000Z 11003KT 40SM OVC090 M08/M14 A2999 RMK AC8 SLP172
Loading
Personal Weather Stations






























Interactive Weather Map New forecast layout! Learn more

10-Day Weather Forecast

Advertisements
Track Severe Weather on mobile